Time;durP1;ratioP1;P1;durP2;ratioP2;P2;SDS_P1;SDS_P2;PMS_P1;PMS_P2;Temp;Humidity;BMP_temperature;BMP_pressure;BME280_temperature;BME280_humidity;BME280_pressure;Samples;Min_cycle;Max_cycle;Signal;HPM_P1;HPM_P2
2022/07/10 00:04:00;;;;;;;6.35;1.10;;;15.00;99.90;;;;;;12499642;28;20050;-38
2022/07/10 00:10:03;;;;;;;3.83;0.93;;;14.90;99.90;;;;;;12499859;28;20053;-35
2022/07/10 00:16:06;;;;;;;5.88;0.90;;;14.70;99.90;;;;;;12500591;28;20609;-34
2022/07/10 00:22:07;;;;;;;5.53;0.80;;;14.80;99.90;;;;;;12501089;28;20136;-35
2022/07/10 00:28:09;;;;;;;7.22;0.90;;;14.90;99.90;;;;;;12500368;28;20053;-35
2022/07/10 00:34:13;;;;;;;4.43;0.75;;;14.70;99.90;;;;;;12499250;28;20092;-35
2022/07/10 00:40:16;;;;;;;4.32;1.10;;;14.60;99.90;;;;;;12498522;28;20049;-35
2022/07/10 00:46:20;;;;;;;5.45;0.90;;;14.50;99.90;;;;;;12498990;28;20046;-39
2022/07/10 00:52:22;;;;;;;4.28;0.95;;;14.50;99.90;;;;;;12495388;28;20049;-36
2022/07/10 00:58:24;;;;;;;4.35;1.25;;;14.30;99.90;;;;;;12490455;28;20045;-35
2022/07/10 01:04:26;;;;;;;5.68;0.80;;;14.30;99.90;;;;;;12494957;28;20146;-35
2022/07/10 01:10:29;;;;;;;5.50;1.23;;;14.40;99.90;;;;;;12500000;28;20095;-35
2022/07/10 01:16:31;;;;;;;9.40;1.40;;;14.30;99.90;;;;;;12477242;28;20460;-34
2022/07/10 01:22:37;;;;;;;6.85;1.08;;;14.30;99.90;;;;;;12496435;28;20401;-39
2022/07/10 01:28:39;;;;;;;8.63;1.10;;;14.30;99.90;;;;;;12507905;28;20080;-36
2022/07/10 01:34:42;;;;;;;7.47;1.00;;;14.20;99.90;;;;;;12493720;28;20038;-35
2022/07/10 01:40:44;;;;;;;6.10;1.30;;;14.10;99.90;;;;;;12495609;28;20565;-34
2022/07/10 01:46:46;;;;;;;7.72;1.25;;;14.00;99.90;;;;;;12493109;28;20144;-38
2022/07/10 01:52:48;;;;;;;7.55;1.08;;;14.10;99.90;;;;;;12492023;28;20079;-35
2022/07/10 01:58:50;;;;;;;8.50;1.10;;;14.00;99.90;;;;;;12502044;28;20212;-34
2022/07/10 02:04:52;;;;;;;3.83;0.90;;;13.90;99.90;;;;;;12497992;28;20122;-35
2022/07/10 02:10:54;;;;;;;11.15;1.30;;;14.00;99.90;;;;;;12492739;28;20099;-39
2022/07/10 02:16:55;;;;;;;5.75;1.10;;;14.00;99.90;;;;;;12489598;28;20053;-35
2022/07/10 02:22:57;;;;;;;6.72;1.00;;;14.00;99.90;;;;;;12504544;28;20098;-37
2022/07/10 02:28:59;;;;;;;4.95;1.00;;;13.90;99.90;;;;;;12502558;28;20701;-38
2022/07/10 02:35:01;;;;;;;8.38;1.10;;;13.90;99.90;;;;;;12490239;28;20038;-36
2022/07/10 02:41:02;;;;;;;5.30;0.80;;;13.80;99.90;;;;;;12493566;28;20046;-35
2022/07/10 02:47:04;;;;;;;7.90;1.10;;;13.90;99.90;;;;;;12490169;28;20140;-38
2022/07/10 02:53:06;;;;;;;6.82;1.00;;;13.90;99.90;;;;;;12493734;28;20076;-35
2022/07/10 02:59:08;;;;;;;8.82;1.27;;;13.90;99.90;;;;;;12491247;28;20061;-39
2022/07/10 03:05:10;;;;;;;8.90;1.42;;;13.90;99.90;;;;;;12491335;28;20165;-38
2022/07/10 03:11:13;;;;;;;6.07;1.27;;;13.90;99.90;;;;;;12493238;28;20136;-38
2022/07/10 03:17:14;;;;;;;7.93;1.40;;;13.80;99.90;;;;;;12491240;28;20187;-39
2022/07/10 03:23:16;;;;;;;4.22;0.98;;;13.70;99.90;;;;;;12496615;28;20532;-35
2022/07/10 03:29:18;;;;;;;6.72;1.23;;;13.60;99.90;;;;;;12492762;28;20390;-36
2022/07/10 03:35:25;;;;;;;8.15;1.23;;;13.70;99.90;;;;;;12486679;28;20045;-35
2022/07/10 03:41:27;;;;;;;5.63;1.08;;;13.70;99.90;;;;;;12491435;28;20124;-38
2022/07/10 03:47:29;;;;;;;4.05;0.70;;;13.60;99.90;;;;;;12490534;28;20171;-39
2022/07/10 03:53:31;;;;;;;5.15;1.10;;;13.70;99.90;;;;;;12493716;28;20037;-35
2022/07/10 03:59:33;;;;;;;9.55;1.65;;;13.50;99.90;;;;;;12489086;28;20124;-35
2022/07/10 04:05:35;;;;;;;6.60;1.42;;;13.50;99.90;;;;;;12489372;28;20054;-39
2022/07/10 04:11:37;;;;;;;6.65;1.00;;;13.60;99.90;;;;;;12488970;28;20064;-38
2022/07/10 04:17:39;;;;;;;5.90;1.02;;;13.60;99.90;;;;;;12489225;28;20126;-34
2022/07/10 04:23:41;;;;;;;10.95;1.40;;;13.60;99.90;;;;;;12490439;28;20555;-35
2022/07/10 04:29:43;;;;;;;7.10;1.00;;;13.60;99.90;;;;;;12492153;28;20095;-35
2022/07/10 04:35:45;;;;;;;6.97;0.95;;;13.50;99.90;;;;;;12488976;28;20048;-38
2022/07/10 04:41:47;;;;;;;5.93;0.90;;;13.40;99.90;;;;;;12489859;28;20565;-38
2022/07/10 04:47:49;;;;;;;5.68;1.25;;;13.60;99.90;;;;;;12496344;28;20481;-35
2022/07/10 04:53:51;;;;;;;2.83;0.90;;;13.40;99.90;;;;;;12497951;28;20079;-38
2022/07/10 04:59:53;;;;;;;5.90;1.27;;;13.40;99.90;;;;;;12497179;28;20045;-37
2022/07/10 05:05:55;;;;;;;4.20;1.10;;;13.50;99.90;;;;;;12502551;28;20041;-35
2022/07/10 05:11:57;;;;;;;7.28;1.25;;;13.30;99.90;;;;;;12497204;28;20053;-35
2022/07/10 05:17:58;;;;;;;5.85;1.25;;;13.50;99.90;;;;;;12495912;28;20418;-35
2022/07/10 05:24:01;;;;;;;6.57;0.98;;;13.40;99.90;;;;;;12479451;28;20042;-34
2022/07/10 05:30:03;;;;;;;6.22;1.55;;;13.30;99.90;;;;;;12496595;28;20054;-38
2022/07/10 05:36:06;;;;;;;6.65;0.90;;;13.30;99.90;;;;;;12495798;28;20113;-38
2022/07/10 05:42:09;;;;;;;6.63;1.10;;;13.40;99.90;;;;;;12497260;28;20088;-38
2022/07/10 05:48:11;;;;;;;6.53;1.50;;;13.60;99.90;;;;;;12492971;28;20126;-38
2022/07/10 05:54:13;;;;;;;6.22;1.35;;;13.60;99.90;;;;;;12503433;28;20052;-38
2022/07/10 06:00:15;;;;;;;5.10;1.00;;;13.60;99.90;;;;;;12494736;28;20500;-39
2022/07/10 06:06:17;;;;;;;4.35;0.70;;;13.70;99.90;;;;;;12495655;28;20042;-38
2022/07/10 06:12:19;;;;;;;8.10;1.17;;;13.90;99.90;;;;;;12493989;28;20183;-35
2022/07/10 06:18:20;;;;;;;6.00;1.05;;;13.90;99.90;;;;;;12493091;28;20117;-39
2022/07/10 06:24:22;;;;;;;5.55;1.88;;;13.80;99.90;;;;;;12489312;28;20623;-38
2022/07/10 06:30:24;;;;;;;5.82;1.13;;;13.80;99.90;;;;;;12493529;28;20489;-35
2022/07/10 06:36:26;;;;;;;8.60;1.20;;;14.10;99.90;;;;;;12492800;28;20717;-35
2022/07/10 06:42:35;;;;;;;4.65;1.25;;;14.10;99.90;;;;;;12486456;28;20388;-35
2022/07/10 06:48:44;;;;;;;8.23;1.10;;;14.20;99.90;;;;;;12490868;28;20486;-35
2022/07/10 06:54:46;;;;;;;6.47;1.00;;;14.20;99.90;;;;;;12489504;28;20049;-40
2022/07/10 07:00:49;;;;;;;9.05;1.05;;;14.10;99.90;;;;;;12493217;28;20084;-35
2022/07/10 07:06:50;;;;;;;7.70;1.60;;;14.10;99.90;;;;;;12491751;28;20140;-39
2022/07/10 07:12:52;;;;;;;7.40;1.30;;;14.20;99.90;;;;;;12493162;28;20087;-35
2022/07/10 07:18:56;;;;;;;7.75;1.08;;;14.20;99.90;;;;;;12491578;28;20045;-35
2022/07/10 07:24:58;;;;;;;8.20;1.10;;;14.30;99.90;;;;;;12465477;28;20053;-41
2022/07/10 07:31:00;;;;;;;4.88;1.00;;;14.10;99.90;;;;;;12491637;28;20099;-35
2022/07/10 07:37:02;;;;;;;5.03;1.30;;;14.00;99.90;;;;;;12493184;28;20049;-35
2022/07/10 07:43:04;;;;;;;9.00;1.42;;;14.10;99.90;;;;;;12491114;28;20037;-35
2022/07/10 07:49:06;;;;;;;7.15;1.90;;;14.10;99.90;;;;;;12492050;28;20064;-38
2022/07/10 07:55:09;;;;;;;13.30;2.20;;;13.90;99.90;;;;;;12490646;28;20076;-39
2022/07/10 08:01:10;;;;;;;9.98;1.92;;;14.00;99.90;;;;;;12490147;28;20053;-39
2022/07/10 08:07:12;;;;;;;8.77;1.65;;;14.10;99.90;;;;;;12472801;28;20085;-35
2022/07/10 08:13:14;;;;;;;7.40;1.40;;;14.20;99.90;;;;;;12490807;28;20124;-35
2022/07/10 08:19:16;;;;;;;7.47;1.25;;;14.20;99.90;;;;;;12473452;28;20500;-35
2022/07/10 08:25:18;;;;;;;10.65;1.55;;;14.30;99.90;;;;;;12503688;28;20432;-35
2022/07/10 08:31:20;;;;;;;7.25;1.10;;;14.50;99.90;;;;;;12499700;28;20053;-38
2022/07/10 08:37:22;;;;;;;9.70;1.40;;;14.60;99.90;;;;;;12483685;28;20497;-39
2022/07/10 08:43:24;;;;;;;9.95;1.50;;;14.90;99.90;;;;;;12497696;28;20083;-35
2022/07/10 08:49:28;;;;;;;11.60;1.13;;;15.20;99.90;;;;;;12499152;28;20041;-39
2022/07/10 08:55:30;;;;;;;4.82;1.05;;;15.50;99.90;;;;;;12499478;28;20106;-35
2022/07/10 09:01:34;;;;;;;4.43;0.80;;;15.60;99.90;;;;;;12505140;28;20114;-38
2022/07/10 09:07:36;;;;;;;;;;;15.70;99.90;;;;;;12498674;28;20045;-38
2022/07/10 09:13:53;;;;;;;7.35;1.17;;;15.80;99.90;;;;;;12486969;28;19925;-35
2022/07/10 09:19:55;;;;;;;7.95;1.10;;;15.90;99.90;;;;;;12497710;28;20199;-35
2022/07/10 09:26:04;;;;;;;4.88;0.90;;;16.00;99.90;;;;;;12496274;28;20057;-39
2022/07/10 09:32:06;;;;;;;5.25;0.80;;;15.90;99.90;;;;;;12496648;28;20118;-38
2022/07/10 09:38:08;;;;;;;7.38;1.00;;;15.90;99.90;;;;;;12497120;28;20045;-39
2022/07/10 09:44:11;;;;;;;5.47;1.00;;;16.20;99.90;;;;;;12496106;28;20072;-38
2022/07/10 09:50:24;;;;;;;5.97;1.05;;;16.50;99.90;;;;;;12497752;28;20481;-35
2022/07/10 09:56:27;;;;;;;6.47;0.97;;;16.30;99.90;;;;;;12494255;28;20493;-39
2022/07/10 10:02:36;;;;;;;5.53;0.90;;;16.30;99.90;;;;;;12507970;28;20045;-35
2022/07/10 10:08:55;;;;;;;4.55;0.82;;;16.00;99.90;;;;;;12495365;28;20080;-34
2022/07/10 10:14:59;;;;;;;4.53;1.10;;;15.80;99.90;;;;;;12490136;28;20255;-34
2022/07/10 10:21:01;;;;;;;5.13;1.05;;;15.70;99.90;;;;;;12495250;28;20045;-38
2022/07/10 10:27:06;;;;;;;6.88;1.15;;;15.70;99.90;;;;;;12494024;28;20045;-34
2022/07/10 10:33:33;;;;;;;7.05;1.20;;;15.70;99.90;;;;;;12500047;28;20117;-38
2022/07/10 10:39:53;;;;;;;7.65;1.10;;;15.70;99.90;;;;;;12494908;28;20041;-35
2022/07/10 10:46:23;;;;;;;7.45;1.20;;;15.70;99.90;;;;;;12493164;28;20057;-40
2022/07/10 10:52:26;;;;;;;3.42;0.95;;;15.60;99.90;;;;;;12489765;28;20053;-39
2022/07/10 10:58:36;;;;;;;5.38;0.80;;;15.50;99.90;;;;;;12493126;28;20450;-39
2022/07/10 11:04:38;;;;;;;4.72;1.13;;;15.40;99.90;;;;;;12496837;28;20084;-39
2022/07/10 11:10:47;;;;;;;4.07;0.68;;;15.40;99.90;;;;;;12493212;28;20080;-38
2022/07/10 11:16:53;;;;;;;4.38;0.73;;;15.40;99.90;;;;;;12493257;28;20133;-39
2022/07/10 11:23:08;;;;;;;6.72;1.40;;;15.40;99.90;;;;;;12491894;28;20057;-39
2022/07/10 11:29:10;;;;;;;7.32;1.10;;;15.40;99.90;;;;;;12492079;28;20053;-34
2022/07/10 11:35:12;;;;;;;6.05;1.33;;;15.40;99.90;;;;;;12497513;28;20041;-34
2022/07/10 11:41:19;;;;;;;5.72;1.30;;;15.40;99.90;;;;;;12491952;28;20386;-38
2022/07/10 11:47:21;;;;;;;6.20;1.05;;;15.30;99.90;;;;;;12474322;28;20542;-39
2022/07/10 11:53:25;;;;;;;6.95;1.35;;;15.20;99.90;;;;;;12485004;28;20452;-39
2022/07/10 11:59:27;;;;;;;4.30;0.80;;;15.10;99.90;;;;;;12502123;28;20092;-35
2022/07/10 12:05:36;;;;;;;6.32;1.10;;;15.00;99.90;;;;;;12500339;28;20573;-38
2022/07/10 12:11:40;;;;;;;6.18;1.50;;;15.00;99.90;;;;;;12501810;28;20402;-38
2022/07/10 12:17:51;;;;;;;6.13;1.13;;;15.10;99.90;;;;;;12500637;28;20054;-38
2022/07/10 12:23:53;;;;;;;4.47;1.17;;;15.10;99.90;;;;;;12500426;28;20280;-38
2022/07/10 12:30:02;;;;;;;6.15;1.05;;;15.10;99.90;;;;;;12508884;28;20095;-38
2022/07/10 12:36:04;;;;;;;3.67;0.95;;;15.00;99.90;;;;;;12495913;28;20098;-38
2022/07/10 12:42:07;;;;;;;3.45;1.00;;;15.00;99.90;;;;;;12500498;28;20045;-38
2022/07/10 12:48:21;;;;;;;4.72;1.20;;;14.90;99.90;;;;;;12500818;28;20057;-38
2022/07/10 12:54:38;;;;;;;5.18;1.70;;;14.90;99.90;;;;;;12500750;28;20528;-38
2022/07/10 13:00:48;;;;;;;6.90;1.10;;;15.00;99.90;;;;;;12485353;28;20045;-35
2022/07/10 13:06:50;;;;;;;3.63;1.02;;;15.30;99.90;;;;;;12481897;28;20120;-35
2022/07/10 13:12:51;;;;;;;2.88;0.73;;;15.70;99.90;;;;;;12488245;28;20038;-38
2022/07/10 13:18:53;;;;;;;4.45;0.65;;;15.90;99.90;;;;;;12495832;28;20570;-35
2022/07/10 13:24:55;;;;;;;3.83;0.90;;;15.90;99.90;;;;;;12497683;28;20079;-35
2022/07/10 13:30:57;;;;;;;1.48;0.50;;;15.80;99.90;;;;;;12503953;28;20041;-35
2022/07/10 13:37:00;;;;;;;5.35;0.77;;;15.90;99.90;;;;;;12483241;28;20057;-38
2022/07/10 13:43:03;;;;;;;3.67;0.60;;;16.00;99.90;;;;;;12495340;28;20041;-38
2022/07/10 13:49:05;;;;;;;2.03;0.60;;;16.20;99.90;;;;;;12496112;28;20188;-34
2022/07/10 13:55:08;;;;;;;4.45;0.70;;;16.10;99.90;;;;;;12495150;28;20084;-35
2022/07/10 14:01:10;;;;;;;3.13;0.75;;;16.20;99.90;;;;;;12502095;28;20056;-34
2022/07/10 14:07:11;;;;;;;1.63;0.60;;;16.30;99.90;;;;;;12495610;28;20048;-39
2022/07/10 14:13:13;;;;;;;2.10;0.50;;;16.50;99.90;;;;;;12495280;28;20038;-38
2022/07/10 14:19:16;;;;;;;1.60;0.52;;;16.40;99.90;;;;;;12493113;28;20130;-35
2022/07/10 14:25:22;;;;;;;3.35;0.70;;;16.30;99.90;;;;;;12492959;28;20460;-38
2022/07/10 14:31:24;;;;;;;2.83;0.43;;;16.20;99.90;;;;;;12490762;28;20075;-35
2022/07/10 14:37:26;;;;;;;1.48;0.47;;;16.20;99.90;;;;;;12494327;28;20073;-38
2022/07/10 14:43:28;;;;;;;3.30;0.60;;;16.10;99.90;;;;;;12494196;28;20490;-35
2022/07/10 14:49:30;;;;;;;1.50;0.47;;;15.90;99.90;;;;;;12493620;28;20135;-40
2022/07/10 14:55:33;;;;;;;2.58;0.57;;;15.90;99.90;;;;;;12498457;28;20041;-35
2022/07/10 15:01:34;;;;;;;3.85;0.68;;;15.70;99.90;;;;;;12494007;28;20085;-38
2022/07/10 15:07:36;;;;;;;3.25;0.73;;;15.60;99.90;;;;;;12494617;28;20041;-39
2022/07/10 15:13:38;;;;;;;3.17;0.80;;;15.50;99.90;;;;;;12493165;28;20053;-38
2022/07/10 15:19:40;;;;;;;1.90;0.75;;;15.60;99.90;;;;;;12495052;28;20501;-38
2022/07/10 15:25:43;;;;;;;2.55;0.68;;;15.60;99.90;;;;;;12492507;28;20133;-35
2022/07/10 15:31:44;;;;;;;2.40;0.70;;;15.70;99.90;;;;;;12494838;28;20075;-38
2022/07/10 15:37:46;;;;;;;4.10;0.77;;;15.70;99.90;;;;;;12493781;28;20041;-39
2022/07/10 15:43:48;;;;;;;1.85;0.70;;;15.70;99.90;;;;;;12492896;28;20041;-39
2022/07/10 15:49:50;;;;;;;1.52;0.57;;;15.70;99.90;;;;;;12495093;28;20053;-35
2022/07/10 15:55:52;;;;;;;3.75;0.88;;;15.70;99.90;;;;;;12491391;28;20136;-38
2022/07/10 16:01:56;;;;;;;2.92;0.90;;;15.80;99.90;;;;;;12495553;28;20438;-35
2022/07/10 16:07:58;;;;;;;2.47;0.73;;;15.70;99.90;;;;;;12487263;28;20191;-35
2022/07/10 16:13:59;;;;;;;1.45;0.98;;;15.70;99.90;;;;;;12486595;28;20126;-39
2022/07/10 16:20:01;;;;;;;2.55;0.60;;;15.70;99.90;;;;;;12487308;28;20049;-39
2022/07/10 16:26:05;;;;;;;3.42;1.13;;;15.60;99.90;;;;;;12485616;28;20049;-35
2022/07/10 16:32:07;;;;;;;3.30;0.80;;;15.70;99.90;;;;;;12491662;28;20562;-39
2022/07/10 16:38:09;;;;;;;2.05;0.52;;;15.90;99.90;;;;;;12488028;28;20102;-35
2022/07/10 16:44:13;;;;;;;2.47;0.50;;;15.90;99.90;;;;;;12493381;28;20041;-35
2022/07/10 16:50:15;;;;;;;2.20;0.60;;;15.70;99.90;;;;;;12494513;28;20050;-39
2022/07/10 16:56:18;;;;;;;1.58;0.60;;;15.70;99.90;;;;;;12494937;28;20049;-35
2022/07/10 17:02:20;;;;;;;2.10;0.70;;;15.70;99.90;;;;;;12492487;28;20516;-39
2022/07/10 17:08:22;;;;;;;3.42;0.85;;;15.60;99.90;;;;;;12494230;28;20041;-39
2022/07/10 17:14:24;;;;;;;7.15;4.00;;;15.70;99.90;;;;;;12491289;28;20148;-39
2022/07/10 17:20:26;;;;;;;2.58;0.85;;;15.70;99.90;;;;;;12491135;28;20535;-36
2022/07/10 17:26:28;;;;;;;2.42;0.70;;;15.70;99.90;;;;;;12494773;28;20053;-35
2022/07/10 17:32:30;;;;;;;5.03;0.70;;;15.60;99.90;;;;;;12496131;28;20050;-40
2022/07/10 17:38:32;;;;;;;1.88;0.70;;;15.70;99.90;;;;;;12491991;28;20045;-35
2022/07/10 17:44:33;;;;;;;2.13;0.40;;;15.70;99.90;;;;;;12492457;28;20606;-35
2022/07/10 17:50:35;;;;;;;2.33;0.60;;;15.70;99.90;;;;;;12493405;28;20537;-40
2022/07/10 17:56:37;;;;;;;2.00;0.47;;;15.70;99.90;;;;;;12491086;28;20045;-39
2022/07/10 18:02:40;;;;;;;1.20;0.60;;;15.70;99.90;;;;;;12499810;28;20093;-35
2022/07/10 18:08:44;;;;;;;2.00;0.68;;;15.70;99.90;;;;;;12491249;28;20107;-36
2022/07/10 18:14:46;;;;;;;1.63;0.50;;;15.70;99.90;;;;;;12491031;28;20057;-35
2022/07/10 18:20:48;;;;;;;2.80;0.70;;;15.60;99.90;;;;;;12485265;28;20045;-35
2022/07/10 18:26:50;;;;;;;1.42;0.70;;;15.40;99.90;;;;;;12482690;28;20135;-39
2022/07/10 18:39:18;;;;;;;1.45;0.65;;;15.10;99.90;;;;;;12487806;28;20087;-38
2022/07/10 18:45:21;;;;;;;4.53;0.73;;;14.90;99.90;;;;;;12485111;28;20397;-35
2022/07/10 18:51:23;;;;;;;1.90;0.57;;;14.90;99.90;;;;;;12485307;28;20060;-39
2022/07/10 18:57:25;;;;;;;2.53;0.88;;;14.90;99.90;;;;;;12487987;28;20451;-35
2022/07/10 19:03:27;;;;;;;2.08;0.85;;;14.90;99.90;;;;;;12491011;28;20486;-35
2022/07/10 19:09:28;;;;;;;2.90;0.63;;;14.80;99.90;;;;;;12487704;28;20386;-35
2022/07/10 19:15:30;;;;;;;2.50;0.82;;;14.90;99.90;;;;;;12449214;28;1096436;-35
2022/07/10 19:21:32;;;;;;;1.50;0.90;;;14.90;99.90;;;;;;12487947;28;20451;-41
2022/07/10 19:27:34;;;;;;;3.47;1.02;;;14.80;99.90;;;;;;12487663;28;20041;-40
2022/07/10 19:33:36;;;;;;;2.65;1.08;;;14.90;99.90;;;;;;12499864;28;20090;-35
2022/07/10 19:39:37;;;;;;;3.25;0.90;;;14.70;99.90;;;;;;12487748;28;20124;-39
2022/07/10 19:45:39;;;;;;;2.67;1.00;;;14.60;99.90;;;;;;12487566;28;20135;-39
2022/07/10 19:51:41;;;;;;;24.77;1.50;;;14.60;99.90;;;;;;12482852;28;20049;-35
2022/07/10 19:57:44;;;;;;;2.95;0.80;;;14.60;99.90;;;;;;12484650;28;20037;-39
2022/07/10 20:03:46;;;;;;;5.13;0.90;;;14.60;99.90;;;;;;12484407;28;20046;-35
2022/07/10 20:09:48;;;;;;;1.67;0.70;;;14.70;99.90;;;;;;12487872;28;20041;-39
2022/07/10 20:15:52;;;;;;;2.60;0.63;;;14.60;99.90;;;;;;12489432;28;20394;-39
2022/07/10 20:22:09;;;;;;;1.92;1.00;;;14.60;99.90;;;;;;12494321;28;20041;-36
2022/07/10 20:28:11;;;;;;;3.30;1.20;;;14.50;99.90;;;;;;12498316;28;20048;-35
2022/07/10 20:34:13;;;;;;;1.98;0.85;;;14.60;99.90;;;;;;12490301;28;20071;-39
2022/07/10 20:40:17;;;;;;;3.35;0.90;;;14.60;99.90;;;;;;12495965;28;20045;-39
2022/07/10 20:46:20;;;;;;;3.00;1.35;;;14.60;99.90;;;;;;12496482;28;20072;-35
2022/07/10 20:52:22;;;;;;;3.20;1.08;;;14.60;99.90;;;;;;12493748;28;20072;-39
2022/07/10 20:58:28;;;;;;;3.00;1.30;;;14.50;99.90;;;;;;12494157;28;20121;-39
2022/07/10 21:04:30;;;;;;;3.08;1.20;;;14.60;99.90;;;;;;12500626;28;20045;-38
2022/07/10 21:10:41;;;;;;;3.60;1.15;;;14.60;99.90;;;;;;12493135;28;20136;-39
2022/07/10 21:16:43;;;;;;;4.13;1.40;;;14.70;99.90;;;;;;12484285;28;20136;-35
2022/07/10 21:22:45;;;;;;;2.80;1.10;;;14.60;99.90;;;;;;12495794;28;20049;-39
2022/07/10 21:28:46;;;;;;;2.80;1.33;;;14.70;99.90;;;;;;12504393;28;20127;-39
2022/07/10 21:34:48;;;;;;;3.33;1.20;;;14.70;99.90;;;;;;12489349;28;20139;-35
2022/07/10 21:40:50;;;;;;;4.93;1.35;;;14.70;99.90;;;;;;12484144;28;20045;-35
2022/07/10 21:46:52;;;;;;;3.78;1.45;;;14.70;99.90;;;;;;12486064;28;20122;-39
2022/07/10 21:52:54;;;;;;;5.20;1.50;;;14.70;99.90;;;;;;12489667;28;20175;-35
2022/07/10 21:58:56;;;;;;;4.50;1.70;;;14.80;99.90;;;;;;12493236;28;20079;-40
2022/07/10 22:04:58;;;;;;;3.38;1.40;;;14.70;99.90;;;;;;12494722;28;20523;-35
2022/07/10 22:10:59;;;;;;;3.15;1.65;;;14.60;99.90;;;;;;12490772;28;20049;-35
2022/07/10 22:17:01;;;;;;;7.40;1.55;;;14.70;99.90;;;;;;12492444;28;20457;-39
2022/07/10 22:23:08;;;;;;;8.40;2.00;;;14.70;99.90;;;;;;12492700;28;20061;-36
2022/07/10 22:29:10;;;;;;;5.18;1.70;;;14.70;99.90;;;;;;12493035;28;20119;-39
2022/07/10 22:35:11;;;;;;;5.70;1.65;;;14.70;99.90;;;;;;12487174;28;20128;-35
2022/07/10 22:41:14;;;;;;;3.47;1.80;;;14.70;99.90;;;;;;12490688;28;20413;-35
2022/07/10 22:47:16;;;;;;;5.32;2.10;;;14.80;99.90;;;;;;12488668;28;20075;-39
2022/07/10 22:53:19;;;;;;;5.60;1.90;;;14.70;99.90;;;;;;12490748;28;20113;-36
2022/07/10 22:59:21;;;;;;;6.32;2.00;;;14.70;99.90;;;;;;12490640;28;20615;-39
2022/07/10 23:05:23;;;;;;;5.95;2.22;;;14.70;99.90;;;;;;12491217;28;20042;-40
2022/07/10 23:11:24;;;;;;;6.43;1.90;;;14.70;99.90;;;;;;12479081;28;20049;-39
2022/07/10 23:17:26;;;;;;;5.13;2.30;;;14.70;99.90;;;;;;12489594;28;20045;-39
2022/07/10 23:23:28;;;;;;;8.70;2.38;;;14.60;99.90;;;;;;12486507;28;20813;-39
2022/07/10 23:29:29;;;;;;;4.47;2.47;;;14.60;99.90;;;;;;12490677;28;20517;-39
2022/07/10 23:35:31;;;;;;;9.48;2.70;;;14.70;99.90;;;;;;12478232;28;20045;-39
2022/07/10 23:41:33;;;;;;;6.03;2.67;;;14.70;99.90;;;;;;12489821;28;20045;-39
2022/07/10 23:47:35;;;;;;;9.38;2.50;;;14.80;99.90;;;;;;12483054;28;20133;-35
2022/07/10 23:53:36;;;;;;;11.90;2.80;;;14.70;99.90;;;;;;12473546;28;20045;-39
2022/07/10 23:59:39;;;;;;;4.40;2.42;;;14.70;99.90;;;;;;12486785;28;20124;-35
